createdAt,value
2023-04-02T00:03:59.849Z,5.43
2023-04-02T00:09:13.139Z,5.00
2023-04-02T00:14:29.632Z,6.03
2023-04-02T00:19:37.220Z,5.97
2023-04-02T00:24:39.121Z,5.72
2023-04-02T00:29:50.647Z,5.28
2023-04-02T00:34:52.298Z,5.57
2023-04-02T00:40:00.792Z,5.18
2023-04-02T00:45:02.692Z,5.45
2023-04-02T00:50:07.109Z,5.13
2023-04-02T00:55:15.391Z,5.75
2023-04-02T01:00:19.628Z,5.35
2023-04-02T01:05:23.235Z,5.63
2023-04-02T01:10:40.285Z,4.82
2023-04-02T01:15:45.339Z,4.50
2023-04-02T01:20:58.848Z,5.47
2023-04-02T01:26:16.888Z,4.95
2023-04-02T01:31:18.277Z,4.47
2023-04-02T01:36:27.954Z,4.80
2023-04-02T01:41:32.649Z,4.50
2023-04-02T01:46:35.407Z,4.80
2023-04-02T01:51:39.857Z,4.53
2023-04-02T01:56:41.709Z,4.78
2023-04-02T02:01:54.191Z,4.57
2023-04-02T02:06:58.674Z,3.92
2023-04-02T02:12:02.576Z,4.85
2023-04-02T02:17:04.979Z,5.45
2023-04-02T02:22:17.850Z,4.97
2023-04-02T02:27:25.536Z,4.93
2023-04-02T02:32:31.045Z,4.57
2023-04-02T02:37:36.285Z,4.75
2023-04-02T02:42:43.220Z,4.70
2023-04-02T02:47:45.495Z,4.93
2023-04-02T02:52:50.955Z,4.20
2023-04-02T02:58:01.878Z,4.43
2023-04-02T03:03:06.705Z,4.97
2023-04-02T03:08:13.517Z,4.20
2023-04-02T03:13:14.878Z,4.90
2023-04-02T03:18:34.853Z,4.43
2023-04-02T03:23:42.023Z,4.90
2023-04-02T03:28:46.556Z,5.03
2023-04-02T03:33:50.467Z,4.07
2023-04-02T03:38:56.138Z,3.47
2023-04-02T03:43:59.126Z,3.50
2023-04-02T03:49:02.420Z,3.30
2023-04-02T03:54:03.859Z,4.05
2023-04-02T03:59:13.380Z,3.45
2023-04-02T04:04:17.843Z,3.00
2023-04-02T04:09:22.019Z,3.00
2023-04-02T04:14:34.584Z,3.40
2023-04-02T04:19:58.479Z,3.17
2023-04-02T04:25:01.102Z,3.70
2023-04-02T04:30:10.415Z,3.00
2023-04-02T04:35:17.818Z,2.60
2023-04-02T04:40:37.546Z,3.00
2023-04-02T04:45:41.964Z,2.63
2023-04-02T04:50:46.148Z,2.63
2023-04-02T04:55:48.776Z,2.60
2023-04-02T05:01:05.868Z,2.58
2023-04-02T05:06:13.352Z,2.30
2023-04-02T05:11:19.570Z,2.42
2023-04-02T05:16:27.261Z,2.20
2023-04-02T05:21:34.320Z,1.98
2023-04-02T05:26:40.949Z,2.13
2023-04-02T05:31:42.709Z,2.10
2023-04-02T05:36:46.567Z,2.20
2023-04-02T05:41:47.979Z,2.00
2023-04-02T05:46:51.182Z,1.98
2023-04-02T05:51:57.610Z,2.10
2023-04-02T05:57:09.764Z,2.20
2023-04-02T06:02:30.949Z,1.90
2023-04-02T06:07:36.419Z,1.98
2023-04-02T06:12:43.438Z,1.90
2023-04-02T06:17:48.746Z,1.65
2023-04-02T06:22:53.028Z,1.98
2023-04-02T06:27:56.792Z,1.95
2023-04-02T06:32:58.361Z,2.47
2023-04-02T06:38:02.595Z,1.90
2023-04-02T06:43:08.018Z,2.05
2023-04-02T06:48:19.521Z,2.00
2023-04-02T06:53:26.079Z,1.70
2023-04-02T06:58:27.518Z,1.90
2023-04-02T07:03:30.219Z,1.95
2023-04-02T07:08:31.662Z,2.08
2023-04-02T07:13:33.032Z,1.90
2023-04-02T07:18:34.716Z,2.03
2023-04-02T07:23:36.217Z,1.67
2023-04-02T07:28:37.673Z,2.00
2023-04-02T07:33:40.652Z,1.98
2023-04-02T07:38:43.588Z,1.63
2023-04-02T07:43:45.518Z,1.70
2023-04-02T07:48:47.160Z,1.75
2023-04-02T07:53:50.350Z,2.15
2023-04-02T07:58:52.128Z,1.60
2023-04-02T08:03:54.714Z,1.80
2023-04-02T08:08:56.912Z,1.98
2023-04-02T08:13:58.285Z,1.70
2023-04-02T08:18:59.679Z,2.17
2023-04-02T08:24:01.078Z,1.63
2023-04-02T08:29:02.830Z,1.52
2023-04-02T08:34:04.590Z,1.67
2023-04-02T08:39:06.522Z,1.40
2023-04-02T08:44:28.180Z,1.60
2023-04-02T08:49:35.916Z,1.40
2023-04-02T08:54:43.534Z,1.50
2023-04-02T08:59:45.065Z,1.45
2023-04-02T09:04:46.547Z,1.67
2023-04-02T09:09:48.841Z,1.50
2023-04-02T09:15:08.811Z,1.50
2023-04-02T09:20:29.397Z,2.38
2023-04-02T09:25:34.387Z,2.20
2023-04-02T09:30:55.057Z,1.50
2023-04-02T09:35:57.897Z,1.98
2023-04-02T09:40:59.607Z,1.83
2023-04-02T09:46:04.039Z,2.38
2023-04-02T09:51:21.449Z,1.90
2023-04-02T09:56:24.298Z,1.90
2023-04-02T10:01:28.346Z,2.03
2023-04-02T10:06:30.651Z,1.88
2023-04-02T10:11:46.410Z,1.70
2023-04-02T10:16:56.616Z,1.70
2023-04-02T10:27:02.663Z,1.90
2023-04-02T10:32:22.676Z,1.58
2023-04-02T10:37:39.125Z,1.70
2023-04-02T10:42:49.077Z,1.90
2023-04-02T10:47:57.922Z,1.60
2023-04-02T10:53:02.366Z,1.60
2023-04-02T10:58:07.300Z,1.52
2023-04-02T11:03:17.512Z,1.52
2023-04-02T11:08:21.233Z,1.58
2023-04-02T11:13:26.220Z,1.58
2023-04-02T11:18:27.601Z,1.77
2023-04-02T11:23:30.608Z,1.73
2023-04-02T11:28:32.642Z,1.70
2023-04-02T11:33:44.242Z,1.55
2023-04-02T11:38:52.237Z,1.45
2023-04-02T11:44:00.311Z,1.48
2023-04-02T11:49:20.331Z,1.60
2023-04-02T11:59:31.973Z,1.73
2023-04-02T12:04:45.779Z,1.92
2023-04-02T12:09:47.335Z,1.40
2023-04-02T12:14:49.149Z,1.80
2023-04-02T12:19:52.425Z,1.50
2023-04-02T12:24:55.641Z,1.40
2023-04-02T12:30:11.152Z,1.55
2023-04-02T12:35:27.031Z,1.80
2023-04-02T12:40:28.916Z,1.30
2023-04-02T12:45:33.257Z,1.63
2023-04-02T12:50:35.152Z,1.52
2023-04-02T12:55:38.396Z,1.42
2023-04-02T13:00:39.961Z,1.67
2023-04-02T13:05:43.764Z,1.38
2023-04-02T13:10:45.393Z,1.52
2023-04-02T13:15:59.804Z,1.38
2023-04-02T13:21:05.646Z,1.83
2023-04-02T13:26:10.411Z,1.30
2023-04-02T13:31:16.088Z,1.20
2023-04-02T13:36:17.524Z,1.50
2023-04-02T13:41:26.503Z,1.33
2023-04-02T13:46:29.414Z,1.30
2023-04-02T13:51:34.593Z,1.40
2023-04-02T13:56:36.198Z,1.40
2023-04-02T14:01:38.724Z,1.35
2023-04-02T14:06:52.829Z,1.33
2023-04-02T14:12:13.011Z,1.38
2023-04-02T14:17:17.424Z,1.45
2023-04-02T14:22:24.730Z,1.30
2023-04-02T14:27:29.069Z,1.50
2023-04-02T14:32:46.472Z,1.40
2023-04-02T14:37:51.487Z,1.23
2023-04-02T14:43:03.381Z,1.48
2023-04-02T14:48:08.734Z,2.20
2023-04-02T14:53:30.367Z,1.42
2023-04-02T14:58:33.894Z,1.38
2023-04-02T15:03:37.607Z,1.27
2023-04-02T15:09:08.935Z,1.50
2023-04-02T15:14:19.383Z,1.30
2023-04-02T15:19:20.943Z,1.35
2023-04-02T15:24:40.913Z,1.25
2023-04-02T15:29:42.350Z,1.80
2023-04-02T15:34:50.287Z,1.42
2023-04-02T15:40:00.927Z,1.30
2023-04-02T15:45:15.957Z,1.40
2023-04-02T15:50:42.627Z,1.58
2023-04-02T15:55:49.934Z,1.30
2023-04-02T16:01:08.387Z,1.30
2023-04-02T16:06:28.960Z,1.17
2023-04-02T16:11:31.462Z,1.30
2023-04-02T16:16:34.656Z,1.50
2023-04-02T16:21:43.347Z,1.90
2023-04-02T16:26:59.970Z,1.60
2023-04-02T16:32:12.625Z,1.55
2023-04-02T16:37:24.459Z,1.60
2023-04-02T16:42:28.652Z,1.50
2023-04-02T16:47:42.486Z,1.50
2023-04-02T16:52:52.228Z,1.52
2023-04-02T17:03:02.428Z,1.60
2023-04-02T17:08:22.651Z,1.40
2023-04-02T17:13:29.910Z,1.20
2023-04-02T17:18:32.600Z,1.92
2023-04-02T17:23:49.438Z,1.98
2023-04-02T17:29:01.513Z,1.77
2023-04-02T17:34:16.227Z,1.20
2023-04-02T17:39:21.767Z,1.20
2023-04-02T17:44:43.489Z,1.48
2023-04-02T17:49:49.498Z,1.45
2023-04-02T17:54:51.713Z,1.65
2023-04-02T17:59:53.109Z,1.50
2023-04-02T18:05:10.523Z,1.30
2023-04-02T18:10:31.007Z,1.27
2023-04-02T18:15:51.260Z,1.30
2023-04-02T18:21:15.797Z,1.55
2023-04-02T18:26:32.367Z,1.30
2023-04-02T18:31:34.001Z,1.20
2023-04-02T18:36:58.183Z,1.23
2023-04-02T18:42:20.975Z,1.40
2023-04-02T18:47:27.267Z,1.70
2023-04-02T18:52:30.162Z,2.00
2023-04-02T18:57:37.296Z,1.40
2023-04-02T19:02:44.205Z,1.48
2023-04-02T19:07:46.690Z,1.30
2023-04-02T19:12:48.128Z,1.40
2023-04-02T19:18:08.172Z,1.30
2023-04-02T19:28:17.340Z,1.45
2023-04-02T19:33:18.712Z,1.80
2023-04-02T19:38:20.107Z,1.60
2023-04-02T19:43:21.644Z,1.50
2023-04-02T19:48:39.001Z,2.28
2023-04-02T19:53:40.632Z,3.35
2023-04-02T19:58:42.169Z,2.03
2023-04-02T20:03:43.654Z,1.98
2023-04-02T20:08:45.113Z,2.10
2023-04-02T20:13:46.582Z,1.88
2023-04-02T20:18:48.518Z,1.83
2023-04-02T20:23:52.839Z,1.88
2023-04-02T20:28:54.234Z,1.73
2023-04-02T20:33:56.788Z,1.20
2023-04-02T20:38:58.703Z,1.45
2023-04-02T20:44:01.024Z,1.60
2023-04-02T20:49:02.491Z,1.50
2023-04-02T20:54:04.048Z,1.45
2023-04-02T20:59:05.518Z,1.83
2023-04-02T21:04:07.010Z,1.50
2023-04-02T21:09:12.893Z,1.70
2023-04-02T21:14:14.337Z,1.38
2023-04-02T21:19:16.078Z,1.40
2023-04-02T21:24:17.511Z,1.42
2023-04-02T21:29:18.856Z,1.40
2023-04-02T21:34:20.340Z,1.45
2023-04-02T21:39:23.015Z,1.52
2023-04-02T21:44:24.702Z,1.50
2023-04-02T21:49:27.406Z,1.63
2023-04-02T21:54:29.554Z,1.40
2023-04-02T21:59:31.029Z,1.58
2023-04-02T22:04:33.461Z,1.40
2023-04-02T22:09:35.000Z,1.40
2023-04-02T22:14:36.955Z,1.63
2023-04-02T22:19:38.567Z,1.50
2023-04-02T22:24:40.023Z,1.58
2023-04-02T22:29:41.408Z,1.45
2023-04-02T22:34:45.681Z,1.70
2023-04-02T22:39:47.277Z,1.50
2023-04-02T22:44:48.711Z,1.60
2023-04-02T22:49:50.237Z,1.50
2023-04-02T22:54:51.769Z,1.35
2023-04-02T22:59:53.211Z,1.17
2023-04-02T23:04:54.615Z,1.45
2023-04-02T23:09:56.256Z,1.65
2023-04-02T23:14:58.051Z,1.42
2023-04-02T23:19:59.591Z,1.50
2023-04-02T23:25:01.027Z,1.30
2023-04-02T23:30:02.455Z,1.20
2023-04-02T23:35:03.905Z,1.10
2023-04-02T23:40:05.629Z,1.75
2023-04-02T23:45:07.238Z,1.17
2023-04-02T23:50:08.850Z,1.30
2023-04-02T23:55:12.222Z,1.40
